sensor_id;sensor_type;location;lat;lon;timestamp;P1;durP1;ratioP1;P2;durP2;ratioP2
46719;SDS011;32452;51.382;-0.002;2023-04-02T00:02:45;2.70;;;1.83;;
46719;SDS011;32452;51.382;-0.002;2023-04-02T00:08:03;6.15;;;1.95;;
46719;SDS011;32452;51.382;-0.002;2023-04-02T00:10:55;4.47;;;2.50;;
46719;SDS011;32452;51.382;-0.002;2023-04-02T00:13:46;5.43;;;1.90;;
46719;SDS011;32452;51.382;-0.002;2023-04-02T00:16:32;3.08;;;1.35;;
46719;SDS011;32452;51.382;-0.002;2023-04-02T00:20:01;4.75;;;1.40;;
46719;SDS011;32452;51.382;-0.002;2023-04-02T00:22:32;3.40;;;1.33;;
46719;SDS011;32452;51.382;-0.002;2023-04-02T00:25:20;2.60;;;1.27;;
46719;SDS011;32452;51.382;-0.002;2023-04-02T00:28:08;2.17;;;1.00;;
46719;SDS011;32452;51.382;-0.002;2023-04-02T00:30:59;3.10;;;1.17;;
46719;SDS011;32452;51.382;-0.002;2023-04-02T00:33:45;3.60;;;1.25;;
46719;SDS011;32452;51.382;-0.002;2023-04-02T00:36:32;2.17;;;1.30;;
46719;SDS011;32452;51.382;-0.002;2023-04-02T00:39:19;4.22;;;1.45;;
46719;SDS011;32452;51.382;-0.002;2023-04-02T00:42:10;2.75;;;1.55;;
46719;SDS011;32452;51.382;-0.002;2023-04-02T00:44:56;4.85;;;1.25;;
46719;SDS011;32452;51.382;-0.002;2023-04-02T00:47:43;4.47;;;1.42;;
46719;SDS011;32452;51.382;-0.002;2023-04-02T00:50:29;3.90;;;1.48;;
46719;SDS011;32452;51.382;-0.002;2023-04-02T00:53:26;2.55;;;1.42;;
46719;SDS011;32452;51.382;-0.002;2023-04-02T00:56:15;2.60;;;1.40;;
46719;SDS011;32452;51.382;-0.002;2023-04-02T01:05:25;2.75;;;1.23;;
46719;SDS011;32452;51.382;-0.002;2023-04-02T01:20:33;3.28;;;1.60;;
46719;SDS011;32452;51.382;-0.002;2023-04-02T01:24:04;3.55;;;2.10;;
46719;SDS011;32452;51.382;-0.002;2023-04-02T01:26:47;5.72;;;1.90;;
46719;SDS011;32452;51.382;-0.002;2023-04-02T01:29:52;6.15;;;2.38;;
46719;SDS011;32452;51.382;-0.002;2023-04-02T01:32:40;6.43;;;2.28;;
46719;SDS011;32452;51.382;-0.002;2023-04-02T01:35:28;3.83;;;2.25;;
46719;SDS011;32452;51.382;-0.002;2023-04-02T01:38:22;8.80;;;3.00;;
46719;SDS011;32452;51.382;-0.002;2023-04-02T01:41:25;9.27;;;3.13;;
46719;SDS011;32452;51.382;-0.002;2023-04-02T01:44:25;4.97;;;2.65;;
46719;SDS011;32452;51.382;-0.002;2023-04-02T01:47:46;7.05;;;2.67;;
46719;SDS011;32452;51.382;-0.002;2023-04-02T01:50:34;5.57;;;2.30;;
46719;SDS011;32452;51.382;-0.002;2023-04-02T01:53:23;9.30;;;2.83;;
46719;SDS011;32452;51.382;-0.002;2023-04-02T01:56:11;8.75;;;3.35;;
46719;SDS011;32452;51.382;-0.002;2023-04-02T01:58:57;8.60;;;3.50;;
46719;SDS011;32452;51.382;-0.002;2023-04-02T02:01:46;8.93;;;5.07;;
46719;SDS011;32452;51.382;-0.002;2023-04-02T02:04:41;8.52;;;2.70;;
46719;SDS011;32452;51.382;-0.002;2023-04-02T02:07:26;5.72;;;3.05;;
46719;SDS011;32452;51.382;-0.002;2023-04-02T02:10:13;7.28;;;3.22;;
46719;SDS011;32452;51.382;-0.002;2023-04-02T02:13:01;8.48;;;3.03;;
46719;SDS011;32452;51.382;-0.002;2023-04-02T02:15:47;11.63;;;3.20;;
46719;SDS011;32452;51.382;-0.002;2023-04-02T02:18:33;11.20;;;2.97;;
46719;SDS011;32452;51.382;-0.002;2023-04-02T02:22:03;10.35;;;3.80;;
46719;SDS011;32452;51.382;-0.002;2023-04-02T02:24:32;7.85;;;3.60;;
46719;SDS011;32452;51.382;-0.002;2023-04-02T02:30:13;8.35;;;3.58;;
46719;SDS011;32452;51.382;-0.002;2023-04-02T02:33:13;13.93;;;4.65;;
46719;SDS011;32452;51.382;-0.002;2023-04-02T02:42:07;11.07;;;3.65;;
46719;SDS011;32452;51.382;-0.002;2023-04-02T02:45:04;9.00;;;3.40;;
46719;SDS011;32452;51.382;-0.002;2023-04-02T02:47:55;10.63;;;3.17;;
46719;SDS011;32452;51.382;-0.002;2023-04-02T02:50:42;12.27;;;4.38;;
46719;SDS011;32452;51.382;-0.002;2023-04-02T02:53:29;10.63;;;4.28;;
46719;SDS011;32452;51.382;-0.002;2023-04-02T02:56:15;8.13;;;3.53;;
46719;SDS011;32452;51.382;-0.002;2023-04-02T02:59:06;10.98;;;3.67;;
46719;SDS011;32452;51.382;-0.002;2023-04-02T03:01:56;10.98;;;4.50;;
46719;SDS011;32452;51.382;-0.002;2023-04-02T03:04:47;12.73;;;5.03;;
46719;SDS011;32452;51.382;-0.002;2023-04-02T03:07:34;9.57;;;3.95;;
46719;SDS011;32452;51.382;-0.002;2023-04-02T03:10:38;9.32;;;4.05;;
46719;SDS011;32452;51.382;-0.002;2023-04-02T03:13:40;12.30;;;4.40;;
46719;SDS011;32452;51.382;-0.002;2023-04-02T03:16:35;12.65;;;4.32;;
46719;SDS011;32452;51.382;-0.002;2023-04-02T03:19:30;12.35;;;3.90;;
46719;SDS011;32452;51.382;-0.002;2023-04-02T03:23:26;14.80;;;4.45;;
46719;SDS011;32452;51.382;-0.002;2023-04-02T03:28:35;9.75;;;4.57;;
46719;SDS011;32452;51.382;-0.002;2023-04-02T03:31:36;11.98;;;4.75;;
46719;SDS011;32452;51.382;-0.002;2023-04-02T03:34:28;13.32;;;4.60;;
46719;SDS011;32452;51.382;-0.002;2023-04-02T03:40:52;11.07;;;4.90;;
46719;SDS011;32452;51.382;-0.002;2023-04-02T03:44:01;14.75;;;5.38;;
46719;SDS011;32452;51.382;-0.002;2023-04-02T03:46:52;12.05;;;4.28;;
46719;SDS011;32452;51.382;-0.002;2023-04-02T03:49:43;13.70;;;4.60;;
46719;SDS011;32452;51.382;-0.002;2023-04-02T03:52:34;13.77;;;4.18;;
46719;SDS011;32452;51.382;-0.002;2023-04-02T03:55:22;18.85;;;4.93;;
46719;SDS011;32452;51.382;-0.002;2023-04-02T03:58:17;21.08;;;6.72;;
46719;SDS011;32452;51.382;-0.002;2023-04-02T04:01:25;14.02;;;5.43;;
46719;SDS011;32452;51.382;-0.002;2023-04-02T04:04:16;17.92;;;4.70;;
46719;SDS011;32452;51.382;-0.002;2023-04-02T04:07:03;16.30;;;5.78;;
46719;SDS011;32452;51.382;-0.002;2023-04-02T04:13:46;15.32;;;4.53;;
46719;SDS011;32452;51.382;-0.002;2023-04-02T04:19:49;13.70;;;5.13;;
46719;SDS011;32452;51.382;-0.002;2023-04-02T04:22:40;19.75;;;5.82;;
46719;SDS011;32452;51.382;-0.002;2023-04-02T04:25:27;17.13;;;5.57;;
46719;SDS011;32452;51.382;-0.002;2023-04-02T04:31:21;19.63;;;5.07;;
46719;SDS011;32452;51.382;-0.002;2023-04-02T04:34:22;15.88;;;5.35;;
46719;SDS011;32452;51.382;-0.002;2023-04-02T04:37:36;16.33;;;5.68;;
46719;SDS011;32452;51.382;-0.002;2023-04-02T04:40:40;18.10;;;6.45;;
46719;SDS011;32452;51.382;-0.002;2023-04-02T04:43:40;17.80;;;5.88;;
46719;SDS011;32452;51.382;-0.002;2023-04-02T04:46:39;34.17;;;6.53;;
46719;SDS011;32452;51.382;-0.002;2023-04-02T04:49:51;15.05;;;5.95;;
46719;SDS011;32452;51.382;-0.002;2023-04-02T04:52:42;18.98;;;4.65;;
46719;SDS011;32452;51.382;-0.002;2023-04-02T04:55:29;13.90;;;5.30;;
46719;SDS011;32452;51.382;-0.002;2023-04-02T04:58:23;14.35;;;3.97;;
46719;SDS011;32452;51.382;-0.002;2023-04-02T05:04:10;11.80;;;3.55;;
46719;SDS011;32452;51.382;-0.002;2023-04-02T05:07:10;10.20;;;2.83;;
46719;SDS011;32452;51.382;-0.002;2023-04-02T05:11:03;17.35;;;4.05;;
46719;SDS011;32452;51.382;-0.002;2023-04-02T05:13:27;10.50;;;2.53;;
46719;SDS011;32452;51.382;-0.002;2023-04-02T05:16:41;11.07;;;3.58;;
46719;SDS011;32452;51.382;-0.002;2023-04-02T05:19:41;7.72;;;2.75;;
46719;SDS011;32452;51.382;-0.002;2023-04-02T05:29:07;11.77;;;2.60;;
46719;SDS011;32452;51.382;-0.002;2023-04-02T05:35:13;7.90;;;2.70;;
46719;SDS011;32452;51.382;-0.002;2023-04-02T05:38:03;11.00;;;3.88;;
46719;SDS011;32452;51.382;-0.002;2023-04-02T05:40:52;9.25;;;2.53;;
46719;SDS011;32452;51.382;-0.002;2023-04-02T05:47:37;6.15;;;2.08;;
46719;SDS011;32452;51.382;-0.002;2023-04-02T05:50:28;5.85;;;2.05;;
46719;SDS011;32452;51.382;-0.002;2023-04-02T05:59:04;7.75;;;1.88;;
46719;SDS011;32452;51.382;-0.002;2023-04-02T06:02:16;8.55;;;1.63;;
46719;SDS011;32452;51.382;-0.002;2023-04-02T06:05:11;6.65;;;2.35;;
46719;SDS011;32452;51.382;-0.002;2023-04-02T06:08:07;14.40;;;2.95;;
46719;SDS011;32452;51.382;-0.002;2023-04-02T06:11:05;9.38;;;3.15;;
46719;SDS011;32452;51.382;-0.002;2023-04-02T06:13:55;4.80;;;1.83;;
46719;SDS011;32452;51.382;-0.002;2023-04-02T06:16:42;7.50;;;1.60;;
46719;SDS011;32452;51.382;-0.002;2023-04-02T06:19:31;13.07;;;2.67;;
46719;SDS011;32452;51.382;-0.002;2023-04-02T06:22:29;6.03;;;1.95;;
46719;SDS011;32452;51.382;-0.002;2023-04-02T06:25:22;9.23;;;2.53;;
46719;SDS011;32452;51.382;-0.002;2023-04-02T06:28:13;7.40;;;1.98;;
46719;SDS011;32452;51.382;-0.002;2023-04-02T06:31:02;11.68;;;2.85;;
46719;SDS011;32452;51.382;-0.002;2023-04-02T06:33:56;8.35;;;2.00;;
46719;SDS011;32452;51.382;-0.002;2023-04-02T06:36:42;11.52;;;2.58;;
46719;SDS011;32452;51.382;-0.002;2023-04-02T06:39:29;10.98;;;2.45;;
46719;SDS011;32452;51.382;-0.002;2023-04-02T06:42:17;11.10;;;3.10;;
46719;SDS011;32452;51.382;-0.002;2023-04-02T06:45:09;12.65;;;2.25;;
46719;SDS011;32452;51.382;-0.002;2023-04-02T06:48:15;10.73;;;2.22;;
46719;SDS011;32452;51.382;-0.002;2023-04-02T06:51:06;12.25;;;3.38;;
46719;SDS011;32452;51.382;-0.002;2023-04-02T06:53:55;8.70;;;3.50;;
46719;SDS011;32452;51.382;-0.002;2023-04-02T06:56:42;12.13;;;2.47;;
46719;SDS011;32452;51.382;-0.002;2023-04-02T06:59:30;11.57;;;2.53;;
46719;SDS011;32452;51.382;-0.002;2023-04-02T07:02:30;11.43;;;2.60;;
46719;SDS011;32452;51.382;-0.002;2023-04-02T07:05:21;14.57;;;3.15;;
46719;SDS011;32452;51.382;-0.002;2023-04-02T07:08:06;10.45;;;2.72;;
46719;SDS011;32452;51.382;-0.002;2023-04-02T07:10:51;10.55;;;2.60;;
46719;SDS011;32452;51.382;-0.002;2023-04-02T07:13:37;11.18;;;2.78;;
46719;SDS011;32452;51.382;-0.002;2023-04-02T07:16:23;8.55;;;2.53;;
46719;SDS011;32452;51.382;-0.002;2023-04-02T07:19:15;11.15;;;2.22;;
46719;SDS011;32452;51.382;-0.002;2023-04-02T07:22:02;7.20;;;1.80;;
46719;SDS011;32452;51.382;-0.002;2023-04-02T07:24:48;8.35;;;2.40;;
46719;SDS011;32452;51.382;-0.002;2023-04-02T07:27:34;5.25;;;1.83;;
46719;SDS011;32452;51.382;-0.002;2023-04-02T07:30:20;13.35;;;2.72;;
46719;SDS011;32452;51.382;-0.002;2023-04-02T07:33:06;9.63;;;2.90;;
46719;SDS011;32452;51.382;-0.002;2023-04-02T07:36:04;10.60;;;3.00;;
46719;SDS011;32452;51.382;-0.002;2023-04-02T07:38:51;15.02;;;3.22;;
46719;SDS011;32452;51.382;-0.002;2023-04-02T07:41:52;13.80;;;2.53;;
46719;SDS011;32452;51.382;-0.002;2023-04-02T07:44:39;9.82;;;2.90;;
46719;SDS011;32452;51.382;-0.002;2023-04-02T07:47:25;10.10;;;2.78;;
46719;SDS011;32452;51.382;-0.002;2023-04-02T07:50:12;14.15;;;3.75;;
46719;SDS011;32452;51.382;-0.002;2023-04-02T07:53:02;19.35;;;4.00;;
46719;SDS011;32452;51.382;-0.002;2023-04-02T07:55:50;11.90;;;2.50;;
46719;SDS011;32452;51.382;-0.002;2023-04-02T07:58:37;18.13;;;3.70;;
46719;SDS011;32452;51.382;-0.002;2023-04-02T08:01:23;9.32;;;2.63;;
46719;SDS011;32452;51.382;-0.002;2023-04-02T08:04:20;9.38;;;2.85;;
46719;SDS011;32452;51.382;-0.002;2023-04-02T08:07:06;10.60;;;2.60;;
46719;SDS011;32452;51.382;-0.002;2023-04-02T08:09:52;12.95;;;2.85;;
46719;SDS011;32452;51.382;-0.002;2023-04-02T08:12:39;16.48;;;2.35;;
46719;SDS011;32452;51.382;-0.002;2023-04-02T08:15:24;10.10;;;2.33;;
46719;SDS011;32452;51.382;-0.002;2023-04-02T08:18:12;8.88;;;2.10;;
46719;SDS011;32452;51.382;-0.002;2023-04-02T08:20:57;7.60;;;3.30;;
46719;SDS011;32452;51.382;-0.002;2023-04-02T08:23:43;7.10;;;2.30;;
46719;SDS011;32452;51.382;-0.002;2023-04-02T08:26:30;8.38;;;2.40;;
46719;SDS011;32452;51.382;-0.002;2023-04-02T08:29:16;7.82;;;2.47;;
46719;SDS011;32452;51.382;-0.002;2023-04-02T08:32:01;9.00;;;2.75;;
46719;SDS011;32452;51.382;-0.002;2023-04-02T08:34:48;11.35;;;2.35;;
46719;SDS011;32452;51.382;-0.002;2023-04-02T08:37:43;8.80;;;2.72;;
46719;SDS011;32452;51.382;-0.002;2023-04-02T08:40:33;10.05;;;2.10;;
46719;SDS011;32452;51.382;-0.002;2023-04-02T08:46:55;10.18;;;2.17;;
46719;SDS011;32452;51.382;-0.002;2023-04-02T08:52:44;9.25;;;1.90;;
46719;SDS011;32452;51.382;-0.002;2023-04-02T08:55:33;11.90;;;3.40;;
46719;SDS011;32452;51.382;-0.002;2023-04-02T09:01:34;13.82;;;2.47;;
46719;SDS011;32452;51.382;-0.002;2023-04-02T09:04:31;19.30;;;3.42;;
46719;SDS011;32452;51.382;-0.002;2023-04-02T09:07:18;10.55;;;2.20;;
46719;SDS011;32452;51.382;-0.002;2023-04-02T09:10:04;12.07;;;2.75;;
46719;SDS011;32452;51.382;-0.002;2023-04-02T09:12:51;5.43;;;2.20;;
46719;SDS011;32452;51.382;-0.002;2023-04-02T09:15:37;8.35;;;2.25;;
46719;SDS011;32452;51.382;-0.002;2023-04-02T09:18:22;9.15;;;2.55;;
46719;SDS011;32452;51.382;-0.002;2023-04-02T09:24:11;12.63;;;2.50;;
46719;SDS011;32452;51.382;-0.002;2023-04-02T09:26:57;9.10;;;2.35;;
46719;SDS011;32452;51.382;-0.002;2023-04-02T09:29:44;7.75;;;2.13;;
46719;SDS011;32452;51.382;-0.002;2023-04-02T09:32:47;11.50;;;2.67;;
46719;SDS011;32452;51.382;-0.002;2023-04-02T09:38:35;12.57;;;2.60;;
46719;SDS011;32452;51.382;-0.002;2023-04-02T09:41:21;17.45;;;2.83;;
46719;SDS011;32452;51.382;-0.002;2023-04-02T09:44:18;11.60;;;2.42;;
46719;SDS011;32452;51.382;-0.002;2023-04-02T09:47:22;9.07;;;2.88;;
46719;SDS011;32452;51.382;-0.002;2023-04-02T09:50:18;13.35;;;2.92;;
46719;SDS011;32452;51.382;-0.002;2023-04-02T09:53:29;14.32;;;2.95;;
46719;SDS011;32452;51.382;-0.002;2023-04-02T09:56:19;10.93;;;1.90;;
46719;SDS011;32452;51.382;-0.002;2023-04-02T09:59:15;14.18;;;2.70;;
46719;SDS011;32452;51.382;-0.002;2023-04-02T10:02:01;15.05;;;2.45;;
46719;SDS011;32452;51.382;-0.002;2023-04-02T10:04:49;8.48;;;2.72;;
46719;SDS011;32452;51.382;-0.002;2023-04-02T10:07:37;9.07;;;2.28;;
46719;SDS011;32452;51.382;-0.002;2023-04-02T10:10:23;12.98;;;2.42;;
46719;SDS011;32452;51.382;-0.002;2023-04-02T10:13:17;8.63;;;2.55;;
46719;SDS011;32452;51.382;-0.002;2023-04-02T10:19:42;11.20;;;2.40;;
46719;SDS011;32452;51.382;-0.002;2023-04-02T10:22:32;10.40;;;2.35;;
46719;SDS011;32452;51.382;-0.002;2023-04-02T10:25:18;12.10;;;2.60;;
46719;SDS011;32452;51.382;-0.002;2023-04-02T10:28:09;9.85;;;2.55;;
46719;SDS011;32452;51.382;-0.002;2023-04-02T10:31:09;8.27;;;2.15;;
46719;SDS011;32452;51.382;-0.002;2023-04-02T10:34:37;12.05;;;2.45;;
46719;SDS011;32452;51.382;-0.002;2023-04-02T10:40:34;9.60;;;2.70;;
46719;SDS011;32452;51.382;-0.002;2023-04-02T10:49:43;14.80;;;2.70;;
46719;SDS011;32452;51.382;-0.002;2023-04-02T10:52:38;10.20;;;2.72;;
46719;SDS011;32452;51.382;-0.002;2023-04-02T10:55:31;15.63;;;2.75;;
46719;SDS011;32452;51.382;-0.002;2023-04-02T11:01:11;15.27;;;2.58;;
46719;SDS011;32452;51.382;-0.002;2023-04-02T11:04:03;8.60;;;2.17;;
46719;SDS011;32452;51.382;-0.002;2023-04-02T11:06:53;7.72;;;2.33;;
46719;SDS011;32452;51.382;-0.002;2023-04-02T11:09:58;9.38;;;1.90;;
46719;SDS011;32452;51.382;-0.002;2023-04-02T11:12:48;10.35;;;2.42;;
46719;SDS011;32452;51.382;-0.002;2023-04-02T11:15:39;9.05;;;2.58;;
46719;SDS011;32452;51.382;-0.002;2023-04-02T11:18:27;13.93;;;3.20;;
46719;SDS011;32452;51.382;-0.002;2023-04-02T11:21:37;9.65;;;2.22;;
46719;SDS011;32452;51.382;-0.002;2023-04-02T11:24:43;10.85;;;2.22;;
46719;SDS011;32452;51.382;-0.002;2023-04-02T11:27:34;7.25;;;1.85;;
46719;SDS011;32452;51.382;-0.002;2023-04-02T11:30:21;7.85;;;2.25;;
46719;SDS011;32452;51.382;-0.002;2023-04-02T11:42:34;10.43;;;2.88;;
46719;SDS011;32452;51.382;-0.002;2023-04-02T11:54:19;12.82;;;1.90;;
46719;SDS011;32452;51.382;-0.002;2023-04-02T12:12:31;11.00;;;2.03;;
46719;SDS011;32452;51.382;-0.002;2023-04-02T12:21:05;8.63;;;2.20;;
46719;SDS011;32452;51.382;-0.002;2023-04-02T12:23:51;7.30;;;1.75;;
46719;SDS011;32452;51.382;-0.002;2023-04-02T12:26:39;13.52;;;2.33;;
46719;SDS011;32452;51.382;-0.002;2023-04-02T12:29:26;7.85;;;2.15;;
46719;SDS011;32452;51.382;-0.002;2023-04-02T12:32:23;13.88;;;2.72;;
46719;SDS011;32452;51.382;-0.002;2023-04-02T12:35:20;11.35;;;2.15;;
46719;SDS011;32452;51.382;-0.002;2023-04-02T12:38:24;10.95;;;2.55;;
46719;SDS011;32452;51.382;-0.002;2023-04-02T12:41:20;8.20;;;1.90;;
46719;SDS011;32452;51.382;-0.002;2023-04-02T12:44:14;13.18;;;2.72;;
46719;SDS011;32452;51.382;-0.002;2023-04-02T12:47:02;11.13;;;1.75;;
46719;SDS011;32452;51.382;-0.002;2023-04-02T12:49:48;12.05;;;2.03;;
46719;SDS011;32452;51.382;-0.002;2023-04-02T12:52:35;6.18;;;2.03;;
46719;SDS011;32452;51.382;-0.002;2023-04-02T12:55:31;6.78;;;2.20;;
46719;SDS011;32452;51.382;-0.002;2023-04-02T12:58:22;9.32;;;2.10;;
46719;SDS011;32452;51.382;-0.002;2023-04-02T13:01:14;11.05;;;1.88;;
46719;SDS011;32452;51.382;-0.002;2023-04-02T13:06:52;10.15;;;2.00;;
46719;SDS011;32452;51.382;-0.002;2023-04-02T13:09:50;8.77;;;1.98;;
46719;SDS011;32452;51.382;-0.002;2023-04-02T13:12:39;10.05;;;2.38;;
46719;SDS011;32452;51.382;-0.002;2023-04-02T13:15:29;9.43;;;2.20;;
46719;SDS011;32452;51.382;-0.002;2023-04-02T13:18:21;8.73;;;1.77;;
46719;SDS011;32452;51.382;-0.002;2023-04-02T13:23:59;11.90;;;2.65;;
46719;SDS011;32452;51.382;-0.002;2023-04-02T13:26:45;11.73;;;2.33;;
46719;SDS011;32452;51.382;-0.002;2023-04-02T13:29:34;11.25;;;2.08;;
46719;SDS011;32452;51.382;-0.002;2023-04-02T13:32:20;7.93;;;2.38;;
46719;SDS011;32452;51.382;-0.002;2023-04-02T13:35:06;10.50;;;3.05;;
46719;SDS011;32452;51.382;-0.002;2023-04-02T13:37:52;6.00;;;2.38;;
46719;SDS011;32452;51.382;-0.002;2023-04-02T13:40:38;10.38;;;2.80;;
46719;SDS011;32452;51.382;-0.002;2023-04-02T13:43:24;7.47;;;1.85;;
46719;SDS011;32452;51.382;-0.002;2023-04-02T13:46:15;8.50;;;2.20;;
46719;SDS011;32452;51.382;-0.002;2023-04-02T13:49:07;6.53;;;1.70;;
46719;SDS011;32452;51.382;-0.002;2023-04-02T13:51:56;8.27;;;2.15;;
46719;SDS011;32452;51.382;-0.002;2023-04-02T13:54:45;8.60;;;1.80;;
46719;SDS011;32452;51.382;-0.002;2023-04-02T13:57:39;7.07;;;2.05;;
46719;SDS011;32452;51.382;-0.002;2023-04-02T14:00:25;10.18;;;2.40;;
46719;SDS011;32452;51.382;-0.002;2023-04-02T14:03:13;11.88;;;2.60;;
46719;SDS011;32452;51.382;-0.002;2023-04-02T14:09:20;14.40;;;1.90;;
46719;SDS011;32452;51.382;-0.002;2023-04-02T14:12:37;8.02;;;1.73;;
46719;SDS011;32452;51.382;-0.002;2023-04-02T14:18:54;8.90;;;1.80;;
46719;SDS011;32452;51.382;-0.002;2023-04-02T14:21:51;7.88;;;1.63;;
46719;SDS011;32452;51.382;-0.002;2023-04-02T14:28:23;9.63;;;2.10;;
46719;SDS011;32452;51.382;-0.002;2023-04-02T14:31:30;10.48;;;3.03;;
46719;SDS011;32452;51.382;-0.002;2023-04-02T14:41:03;10.55;;;1.88;;
46719;SDS011;32452;51.382;-0.002;2023-04-02T14:44:06;7.40;;;1.95;;
46719;SDS011;32452;51.382;-0.002;2023-04-02T14:46:59;5.82;;;2.42;;
46719;SDS011;32452;51.382;-0.002;2023-04-02T14:50:07;7.55;;;2.25;;
46719;SDS011;32452;51.382;-0.002;2023-04-02T14:53:00;8.00;;;2.33;;
46719;SDS011;32452;51.382;-0.002;2023-04-02T14:55:53;9.48;;;2.13;;
46719;SDS011;32452;51.382;-0.002;2023-04-02T14:58:41;7.82;;;2.05;;
46719;SDS011;32452;51.382;-0.002;2023-04-02T15:01:39;8.13;;;1.88;;
46719;SDS011;32452;51.382;-0.002;2023-04-02T15:04:40;10.30;;;1.83;;
46719;SDS011;32452;51.382;-0.002;2023-04-02T15:07:32;8.18;;;1.92;;
46719;SDS011;32452;51.382;-0.002;2023-04-02T15:10:28;7.88;;;1.90;;
46719;SDS011;32452;51.382;-0.002;2023-04-02T15:14:09;8.73;;;1.48;;
46719;SDS011;32452;51.382;-0.002;2023-04-02T15:16:34;7.82;;;2.03;;
46719;SDS011;32452;51.382;-0.002;2023-04-02T15:19:20;8.27;;;2.03;;
46719;SDS011;32452;51.382;-0.002;2023-04-02T15:25:15;8.85;;;1.90;;
46719;SDS011;32452;51.382;-0.002;2023-04-02T15:31:16;9.50;;;1.90;;
46719;SDS011;32452;51.382;-0.002;2023-04-02T15:34:08;5.45;;;1.60;;
46719;SDS011;32452;51.382;-0.002;2023-04-02T15:40:19;9.95;;;2.13;;
46719;SDS011;32452;51.382;-0.002;2023-04-02T15:52:47;8.32;;;1.70;;
46719;SDS011;32452;51.382;-0.002;2023-04-02T15:55:44;9.25;;;1.85;;
46719;SDS011;32452;51.382;-0.002;2023-04-02T15:59:01;11.02;;;2.95;;
46719;SDS011;32452;51.382;-0.002;2023-04-02T16:08:23;4.93;;;1.33;;
46719;SDS011;32452;51.382;-0.002;2023-04-02T16:11:24;11.65;;;2.55;;
46719;SDS011;32452;51.382;-0.002;2023-04-02T16:14:19;9.55;;;2.00;;
46719;SDS011;32452;51.382;-0.002;2023-04-02T16:17:15;9.40;;;2.85;;
46719;SDS011;32452;51.382;-0.002;2023-04-02T16:20:14;7.07;;;2.45;;
46719;SDS011;32452;51.382;-0.002;2023-04-02T16:23:03;8.18;;;2.10;;
46719;SDS011;32452;51.382;-0.002;2023-04-02T16:41:57;6.13;;;1.70;;
46719;SDS011;32452;51.382;-0.002;2023-04-02T16:45:11;7.15;;;1.95;;
46719;SDS011;32452;51.382;-0.002;2023-04-02T16:48:19;9.23;;;2.08;;
46719;SDS011;32452;51.382;-0.002;2023-04-02T16:54:15;8.38;;;1.88;;
46719;SDS011;32452;51.382;-0.002;2023-04-02T17:00:28;10.80;;;2.05;;
46719;SDS011;32452;51.382;-0.002;2023-04-02T17:04:02;8.13;;;1.85;;
46719;SDS011;32452;51.382;-0.002;2023-04-02T17:10:13;6.78;;;1.70;;
46719;SDS011;32452;51.382;-0.002;2023-04-02T17:18:56;7.50;;;1.73;;
46719;SDS011;32452;51.382;-0.002;2023-04-02T17:21:48;14.50;;;3.13;;
46719;SDS011;32452;51.382;-0.002;2023-04-02T17:24:40;7.97;;;2.10;;
46719;SDS011;32452;51.382;-0.002;2023-04-02T17:27:34;10.57;;;2.03;;
46719;SDS011;32452;51.382;-0.002;2023-04-02T17:30:37;9.38;;;1.50;;
46719;SDS011;32452;51.382;-0.002;2023-04-02T17:33:35;5.95;;;1.63;;
46719;SDS011;32452;51.382;-0.002;2023-04-02T17:36:39;6.70;;;2.00;;
46719;SDS011;32452;51.382;-0.002;2023-04-02T17:39:40;12.75;;;2.35;;
46719;SDS011;32452;51.382;-0.002;2023-04-02T17:45:40;8.15;;;1.52;;
46719;SDS011;32452;51.382;-0.002;2023-04-02T17:48:40;10.40;;;2.17;;
46719;SDS011;32452;51.382;-0.002;2023-04-02T17:57:18;7.90;;;1.90;;
46719;SDS011;32452;51.382;-0.002;2023-04-02T18:03:48;7.20;;;1.85;;
46719;SDS011;32452;51.382;-0.002;2023-04-02T18:10:17;9.07;;;2.00;;
46719;SDS011;32452;51.382;-0.002;2023-04-02T18:13:20;5.97;;;1.77;;
46719;SDS011;32452;51.382;-0.002;2023-04-02T18:16:26;10.65;;;2.47;;
46719;SDS011;32452;51.382;-0.002;2023-04-02T18:19:40;11.30;;;2.38;;
46719;SDS011;32452;51.382;-0.002;2023-04-02T18:22:31;13.27;;;3.60;;
46719;SDS011;32452;51.382;-0.002;2023-04-02T18:25:54;11.68;;;2.72;;
46719;SDS011;32452;51.382;-0.002;2023-04-02T18:36:00;14.55;;;2.65;;
46719;SDS011;32452;51.382;-0.002;2023-04-02T18:38:52;18.58;;;3.80;;
46719;SDS011;32452;51.382;-0.002;2023-04-02T18:41:59;9.55;;;2.20;;
46719;SDS011;32452;51.382;-0.002;2023-04-02T18:47:38;12.98;;;2.78;;
46719;SDS011;32452;51.382;-0.002;2023-04-02T18:50:47;12.90;;;2.42;;
46719;SDS011;32452;51.382;-0.002;2023-04-02T18:53:33;17.75;;;3.53;;
46719;SDS011;32452;51.382;-0.002;2023-04-02T18:56:19;11.35;;;2.42;;
46719;SDS011;32452;51.382;-0.002;2023-04-02T19:02:37;34.95;;;10.73;;
46719;SDS011;32452;51.382;-0.002;2023-04-02T19:05:25;21.67;;;4.65;;
46719;SDS011;32452;51.382;-0.002;2023-04-02T19:11:28;9.85;;;2.58;;
46719;SDS011;32452;51.382;-0.002;2023-04-02T19:14:16;9.50;;;2.92;;
46719;SDS011;32452;51.382;-0.002;2023-04-02T19:17:07;16.88;;;3.90;;
46719;SDS011;32452;51.382;-0.002;2023-04-02T19:20:12;14.98;;;2.85;;
46719;SDS011;32452;51.382;-0.002;2023-04-02T19:26:24;14.65;;;3.35;;
46719;SDS011;32452;51.382;-0.002;2023-04-02T19:33:17;15.07;;;3.53;;
46719;SDS011;32452;51.382;-0.002;2023-04-02T19:35:31;16.42;;;3.10;;
46719;SDS011;32452;51.382;-0.002;2023-04-02T19:41:36;14.52;;;2.88;;
46719;SDS011;32452;51.382;-0.002;2023-04-02T19:44:23;15.18;;;3.38;;
46719;SDS011;32452;51.382;-0.002;2023-04-02T19:47:11;20.27;;;3.10;;
46719;SDS011;32452;51.382;-0.002;2023-04-02T19:50:15;13.88;;;3.65;;
46719;SDS011;32452;51.382;-0.002;2023-04-02T19:53:00;16.63;;;3.58;;
46719;SDS011;32452;51.382;-0.002;2023-04-02T19:55:46;10.23;;;2.50;;
46719;SDS011;32452;51.382;-0.002;2023-04-02T19:58:33;10.15;;;2.70;;
46719;SDS011;32452;51.382;-0.002;2023-04-02T20:01:23;13.15;;;3.00;;
46719;SDS011;32452;51.382;-0.002;2023-04-02T20:04:11;12.07;;;3.08;;
46719;SDS011;32452;51.382;-0.002;2023-04-02T20:07:00;16.80;;;3.42;;
46719;SDS011;32452;51.382;-0.002;2023-04-02T20:09:50;17.33;;;3.00;;
46719;SDS011;32452;51.382;-0.002;2023-04-02T20:12:36;13.90;;;3.00;;
46719;SDS011;32452;51.382;-0.002;2023-04-02T20:15:22;15.23;;;2.70;;
46719;SDS011;32452;51.382;-0.002;2023-04-02T20:18:08;13.50;;;2.50;;
46719;SDS011;32452;51.382;-0.002;2023-04-02T20:20:54;17.00;;;4.15;;
46719;SDS011;32452;51.382;-0.002;2023-04-02T20:23:40;12.48;;;3.60;;
46719;SDS011;32452;51.382;-0.002;2023-04-02T20:26:26;11.70;;;3.20;;
46719;SDS011;32452;51.382;-0.002;2023-04-02T20:29:12;13.32;;;4.47;;
46719;SDS011;32452;51.382;-0.002;2023-04-02T20:31:57;17.02;;;4.63;;
46719;SDS011;32452;51.382;-0.002;2023-04-02T20:34:43;26.90;;;5.93;;
46719;SDS011;32452;51.382;-0.002;2023-04-02T20:37:29;19.13;;;4.63;;
46719;SDS011;32452;51.382;-0.002;2023-04-02T20:40:15;13.55;;;4.63;;
46719;SDS011;32452;51.382;-0.002;2023-04-02T20:43:01;11.98;;;3.65;;
46719;SDS011;32452;51.382;-0.002;2023-04-02T20:45:54;15.27;;;4.32;;
46719;SDS011;32452;51.382;-0.002;2023-04-02T20:48:43;12.65;;;4.40;;
46719;SDS011;32452;51.382;-0.002;2023-04-02T20:51:29;16.85;;;4.45;;
46719;SDS011;32452;51.382;-0.002;2023-04-02T20:54:15;13.98;;;4.43;;
46719;SDS011;32452;51.382;-0.002;2023-04-02T20:57:01;17.27;;;4.80;;
46719;SDS011;32452;51.382;-0.002;2023-04-02T20:59:47;18.08;;;4.85;;
46719;SDS011;32452;51.382;-0.002;2023-04-02T21:02:33;17.83;;;5.22;;
46719;SDS011;32452;51.382;-0.002;2023-04-02T21:05:18;14.30;;;4.35;;
46719;SDS011;32452;51.382;-0.002;2023-04-02T21:08:05;15.60;;;3.67;;
46719;SDS011;32452;51.382;-0.002;2023-04-02T21:10:50;15.77;;;3.88;;
46719;SDS011;32452;51.382;-0.002;2023-04-02T21:13:36;13.98;;;3.92;;
46719;SDS011;32452;51.382;-0.002;2023-04-02T21:16:23;12.27;;;3.88;;
46719;SDS011;32452;51.382;-0.002;2023-04-02T21:19:13;24.38;;;4.93;;
46719;SDS011;32452;51.382;-0.002;2023-04-02T21:21:59;23.40;;;4.50;;